Time;durP1;ratioP1;P1;durP2;ratioP2;P2;SDS_P1;SDS_P2;PMS_P1;PMS_P2;Temp;Humidity;BMP_temperature;BMP_pressure;BME280_temperature;BME280_humidity;BME280_pressure;Samples;Min_cycle;Max_cycle;Signal;HPM_P1;HPM_P2
2023/08/31 00:01:53;;;;;;;3.38;1.15;;;;;;;;;;4921185;29;20366;-64
2023/08/31 00:04:19;;;;;;;2.92;0.98;;;;;;;;;;4921006;29;20028;-64
2023/08/31 00:06:46;;;;;;;3.05;0.93;;;;;;;;;;4921320;29;20066;-64
2023/08/31 00:09:12;;;;;;;3.45;1.00;;;;;;;;;;4937212;29;20055;-64
2023/08/31 00:11:39;;;;;;;3.40;1.05;;;;;;;;;;4939763;29;20135;-64
2023/08/31 00:14:05;;;;;;;3.45;1.20;;;;;;;;;;4920903;29;20472;-64
2023/08/31 00:16:31;;;;;;;4.13;1.20;;;;;;;;;;4921152;29;20103;-64
2023/08/31 00:18:57;;;;;;;3.67;1.10;;;;;;;;;;4920778;29;20115;-64
2023/08/31 00:21:23;;;;;;;2.70;1.10;;;;;;;;;;4921082;29;20055;-64
2023/08/31 00:23:49;;;;;;;2.90;1.00;;;;;;;;;;4920812;29;20574;-64
2023/08/31 00:26:15;;;;;;;4.43;1.30;;;;;;;;;;4920633;29;20043;-64
2023/08/31 00:28:42;;;;;;;2.95;0.90;;;;;;;;;;4903494;29;20409;-64
2023/08/31 00:31:11;;;;;;;3.30;0.95;;;;;;;;;;4920910;29;20478;-64
2023/08/31 00:33:40;;;;;;;2.40;0.93;;;;;;;;;;4920575;29;20028;-64
2023/08/31 00:36:06;;;;;;;3.70;1.00;;;;;;;;;;4921012;29;20154;-64
2023/08/31 00:38:32;;;;;;;5.47;1.20;;;;;;;;;;4920490;29;20020;-64
2023/08/31 00:40:58;;;;;;;5.45;1.20;;;;;;;;;;4922287;29;20024;-64
2023/08/31 00:43:24;;;;;;;3.97;1.30;;;;;;;;;;4920321;29;20035;-64
2023/08/31 00:45:51;;;;;;;3.45;1.10;;;;;;;;;;4920671;29;20028;-64
2023/08/31 00:48:18;;;;;;;4.03;1.52;;;;;;;;;;4921993;29;20028;-64
2023/08/31 00:50:47;;;;;;;3.35;1.00;;;;;;;;;;4920707;29;20035;-64
2023/08/31 00:53:14;;;;;;;2.95;1.02;;;;;;;;;;4920460;29;20371;-64
2023/08/31 00:55:41;;;;;;;4.57;1.05;;;;;;;;;;4920631;29;20021;-64
2023/08/31 00:58:07;;;;;;;5.00;1.20;;;;;;;;;;4924085;29;20036;-64
2023/08/31 01:00:44;;;;;;;4.70;1.23;;;;;;;;;;4924609;29;20043;-64
2023/08/31 01:03:13;;;;;;;2.45;1.00;;;;;;;;;;4924461;29;20024;-64
2023/08/31 01:05:53;;;;;;;5.22;1.20;;;;;;;;;;4924129;29;20029;-64
2023/08/31 01:08:33;;;;;;;2.95;0.73;;;;;;;;;;4924516;29;20064;-64
2023/08/31 01:11:03;;;;;;;3.78;0.90;;;;;;;;;;4941925;29;20103;-64
2023/08/31 01:13:30;;;;;;;4.68;1.10;;;;;;;;;;4940702;29;20035;-63
2023/08/31 01:15:58;;;;;;;4.40;1.30;;;;;;;;;;4942998;29;20032;-63
2023/08/31 01:18:25;;;;;;;4.50;1.00;;;;;;;;;;4943122;29;20039;-64
2023/08/31 01:21:10;;;;;;;4.32;1.00;;;;;;;;;;4943046;29;20024;-65
2023/08/31 01:23:45;;;;;;;4.30;1.10;;;;;;;;;;4942970;29;20028;-63
2023/08/31 01:26:11;;;;;;;6.50;1.30;;;;;;;;;;4924597;29;20020;-63
2023/08/31 01:28:37;;;;;;;4.03;1.10;;;;;;;;;;4923672;29;20404;-64
2023/08/31 01:31:07;;;;;;;6.18;1.13;;;;;;;;;;4906754;29;20028;-64
2023/08/31 01:33:33;;;;;;;3.67;0.90;;;;;;;;;;4923731;29;20032;-64
2023/08/31 01:36:00;;;;;;;3.83;1.05;;;;;;;;;;4923897;29;20112;-64
2023/08/31 01:38:29;;;;;;;5.53;1.20;;;;;;;;;;4923562;29;20032;-66
2023/08/31 01:40:59;;;;;;;4.75;1.00;;;;;;;;;;4925325;29;20104;-65
2023/08/31 01:43:25;;;;;;;5.32;1.20;;;;;;;;;;4924708;29;20028;-64
2023/08/31 01:45:51;;;;;;;4.63;1.27;;;;;;;;;;4923660;29;20024;-65
2023/08/31 01:48:17;;;;;;;3.63;1.05;;;;;;;;;;4924974;29;20401;-65
2023/08/31 01:50:43;;;;;;;4.47;1.20;;;;;;;;;;4923723;29;20031;-64
2023/08/31 01:53:09;;;;;;;4.35;1.10;;;;;;;;;;4923409;29;20028;-65
2023/08/31 01:55:36;;;;;;;5.13;1.10;;;;;;;;;;4923196;29;20028;-64
2023/08/31 01:58:02;;;;;;;3.85;1.10;;;;;;;;;;4923060;29;20107;-65
2023/08/31 02:00:29;;;;;;;4.30;1.05;;;;;;;;;;4923416;29;20392;-65
2023/08/31 02:02:55;;;;;;;4.78;1.00;;;;;;;;;;4923309;29;20035;-65
2023/08/31 02:05:21;;;;;;;3.15;1.10;;;;;;;;;;4923388;29;20554;-65
2023/08/31 02:07:47;;;;;;;2.63;0.98;;;;;;;;;;4905631;29;20059;-64
2023/08/31 02:10:13;;;;;;;4.13;0.90;;;;;;;;;;4934815;29;20096;-65
2023/08/31 02:12:39;;;;;;;3.15;1.30;;;;;;;;;;4934244;29;20036;-64
2023/08/31 02:15:05;;;;;;;5.35;1.17;;;;;;;;;;4917602;29;20122;-64
2023/08/31 02:17:32;;;;;;;3.67;1.10;;;;;;;;;;4940984;29;20103;-64
2023/08/31 02:19:59;;;;;;;5.68;1.23;;;;;;;;;;4942169;29;20038;-64
2023/08/31 02:22:25;;;;;;;6.82;1.30;;;;;;;;;;4929754;29;20019;-64
2023/08/31 02:24:52;;;;;;;6.00;1.30;;;;;;;;;;4934241;29;20036;-64
2023/08/31 02:27:18;;;;;;;5.80;1.25;;;;;;;;;;4922612;29;20062;-64
2023/08/31 02:29:44;;;;;;;4.68;1.15;;;;;;;;;;4923049;29;20028;-64
2023/08/31 02:32:10;;;;;;;3.60;1.10;;;;;;;;;;4922712;29;20397;-64
2023/08/31 02:34:36;;;;;;;5.15;1.30;;;;;;;;;;4922958;29;20478;-64
2023/08/31 02:37:02;;;;;;;2.78;1.02;;;;;;;;;;4905874;29;20053;-64
2023/08/31 02:39:28;;;;;;;4.53;1.08;;;;;;;;;;4923693;29;20024;-64
2023/08/31 02:41:54;;;;;;;4.07;1.02;;;;;;;;;;4922866;29;20021;-64
2023/08/31 02:44:21;;;;;;;1.67;0.90;;;;;;;;;;4922815;29;20066;-64
2023/08/31 02:46:47;;;;;;;4.90;1.23;;;;;;;;;;4922679;29;20405;-64
2023/08/31 02:49:13;;;;;;;5.35;1.20;;;;;;;;;;4924396;29;20103;-64
2023/08/31 02:51:39;;;;;;;3.83;1.10;;;;;;;;;;4922441;29;20025;-64
2023/08/31 02:54:05;;;;;;;1.80;0.70;;;;;;;;;;4922754;29;20036;-64
2023/08/31 02:56:31;;;;;;;4.53;1.27;;;;;;;;;;4922294;29;20024;-64
2023/08/31 02:58:57;;;;;;;5.47;0.98;;;;;;;;;;4922403;29;20044;-64
2023/08/31 03:01:24;;;;;;;3.72;1.30;;;;;;;;;;4922266;29;20028;-64
2023/08/31 03:03:50;;;;;;;3.60;0.95;;;;;;;;;;4922572;29;20024;-64
2023/08/31 03:06:16;;;;;;;3.78;0.95;;;;;;;;;;4922230;29;20486;-64
2023/08/31 03:08:42;;;;;;;3.92;1.10;;;;;;;;;;4922335;29;20036;-64
2023/08/31 03:11:08;;;;;;;5.57;1.25;;;;;;;;;;4921999;29;20127;-64
2023/08/31 03:13:34;;;;;;;3.42;1.00;;;;;;;;;;4921951;29;20035;-64
2023/08/31 03:16:01;;;;;;;4.03;1.20;;;;;;;;;;4922186;29;20024;-63
2023/08/31 03:18:27;;;;;;;3.67;0.90;;;;;;;;;;4921444;29;20036;-64
2023/08/31 03:20:54;;;;;;;3.25;1.05;;;;;;;;;;4904944;29;20031;-64
2023/08/31 03:23:20;;;;;;;5.57;1.08;;;;;;;;;;4922077;29;20028;-64
2023/08/31 03:25:46;;;;;;;3.92;1.10;;;;;;;;;;4921656;29;20035;-64
2023/08/31 03:28:12;;;;;;;3.22;1.17;;;;;;;;;;4921817;29;20404;-64
2023/08/31 03:30:38;;;;;;;6.10;1.20;;;;;;;;;;4921821;29;20031;-64
2023/08/31 03:33:05;;;;;;;4.10;0.93;;;;;;;;;;4921754;29;20036;-64
2023/08/31 03:35:32;;;;;;;5.63;1.33;;;;;;;;;;4921881;29;20025;-64
2023/08/31 03:37:58;;;;;;;3.83;1.02;;;;;;;;;;4904697;29;20036;-64
2023/08/31 03:40:24;;;;;;;4.82;1.00;;;;;;;;;;4906082;29;20031;-64
2023/08/31 03:42:50;;;;;;;3.83;1.08;;;;;;;;;;4921400;29;20500;-63
2023/08/31 03:45:18;;;;;;;4.80;1.08;;;;;;;;;;4921610;29;20031;-63
2023/08/31 03:47:44;;;;;;;3.75;1.10;;;;;;;;;;4923253;29;20490;-65
2023/08/31 03:50:10;;;;;;;6.45;1.20;;;;;;;;;;4921715;29;20035;-64
2023/08/31 03:52:36;;;;;;;4.93;1.30;;;;;;;;;;4921440;29;20397;-64
2023/08/31 03:55:02;;;;;;;4.47;0.93;;;;;;;;;;4921468;29;20036;-64
2023/08/31 03:57:28;;;;;;;6.85;1.20;;;;;;;;;;4920960;29;20083;-64
2023/08/31 03:59:54;;;;;;;4.80;1.30;;;;;;;;;;4921561;29;20025;-64
2023/08/31 04:02:20;;;;;;;5.03;1.23;;;;;;;;;;4921304;29;20028;-64
2023/08/31 04:04:46;;;;;;;5.53;1.30;;;;;;;;;;4921554;29;20529;-64
2023/08/31 04:07:12;;;;;;;6.50;1.20;;;;;;;;;;4921283;29;20036;-64
2023/08/31 04:09:38;;;;;;;4.60;1.23;;;;;;;;;;4921182;29;20024;-64
2023/08/31 04:12:04;;;;;;;3.40;0.95;;;;;;;;;;4905940;29;20063;-64
2023/08/31 04:14:30;;;;;;;4.15;1.02;;;;;;;;;;4885529;29;20462;-64
2023/08/31 04:16:56;;;;;;;3.22;1.05;;;;;;;;;;4904073;29;20138;-64
2023/08/31 04:19:22;;;;;;;4.22;1.00;;;;;;;;;;4913663;29;20107;-64
2023/08/31 04:21:48;;;;;;;4.40;1.30;;;;;;;;;;4902232;29;20060;-64
2023/08/31 04:24:14;;;;;;;6.05;1.35;;;;;;;;;;4902157;29;20439;-63
2023/08/31 04:26:40;;;;;;;5.15;1.02;;;;;;;;;;4901984;29;20084;-64
2023/08/31 04:29:06;;;;;;;5.05;1.05;;;;;;;;;;4908023;29;20036;-64
2023/08/31 04:31:34;;;;;;;2.45;1.00;;;;;;;;;;4890599;29;20085;-64
2023/08/31 04:34:00;;;;;;;3.35;1.00;;;;;;;;;;4902131;29;20029;-64
2023/08/31 04:36:26;;;;;;;3.85;1.13;;;;;;;;;;4902022;29;20031;-64
2023/08/31 04:38:52;;;;;;;5.05;1.05;;;;;;;;;;4901900;29;20111;-65
2023/08/31 04:41:18;;;;;;;4.88;0.90;;;;;;;;;;4903247;29;20031;-65
2023/08/31 04:43:47;;;;;;;2.38;0.98;;;;;;;;;;4901781;29;20080;-65
2023/08/31 04:46:13;;;;;;;3.30;0.95;;;;;;;;;;4901877;29;20032;-65
2023/08/31 04:48:39;;;;;;;4.18;1.08;;;;;;;;;;4903065;29;20020;-64
2023/08/31 04:51:05;;;;;;;5.72;1.17;;;;;;;;;;4901765;29;20508;-64
2023/08/31 04:53:31;;;;;;;5.70;1.10;;;;;;;;;;4901902;29;20487;-65
2023/08/31 04:55:58;;;;;;;4.78;1.08;;;;;;;;;;4901676;29;20036;-64
2023/08/31 04:58:24;;;;;;;3.55;1.10;;;;;;;;;;4901615;29;20111;-65
2023/08/31 05:00:51;;;;;;;5.05;1.30;;;;;;;;;;4884863;29;20027;-64
2023/08/31 05:03:17;;;;;;;3.50;1.05;;;;;;;;;;4901889;29;20028;-64
2023/08/31 05:05:44;;;;;;;4.13;1.13;;;;;;;;;;4901742;29;20120;-64
2023/08/31 05:08:10;;;;;;;3.15;1.00;;;;;;;;;;4901765;29;20061;-64
2023/08/31 05:10:36;;;;;;;4.35;1.45;;;;;;;;;;4905250;29;20052;-64
2023/08/31 05:13:04;;;;;;;2.88;1.10;;;;;;;;;;4909617;29;20115;-64
2023/08/31 05:15:30;;;;;;;3.10;1.02;;;;;;;;;;4892743;29;20608;-64
2023/08/31 05:17:56;;;;;;;5.32;1.17;;;;;;;;;;4911103;29;20032;-64
2023/08/31 05:20:23;;;;;;;3.90;1.17;;;;;;;;;;4901391;29;20028;-64
2023/08/31 05:22:49;;;;;;;4.13;1.00;;;;;;;;;;4901720;29;20394;-65
2023/08/31 05:25:15;;;;;;;5.50;1.10;;;;;;;;;;4908655;29;20087;-65
2023/08/31 05:27:41;;;;;;;3.33;1.00;;;;;;;;;;4901315;29;20031;-65
2023/08/31 05:30:07;;;;;;;4.18;0.95;;;;;;;;;;4901590;29;20037;-65
2023/08/31 05:32:33;;;;;;;5.15;1.10;;;;;;;;;;4901742;29;20039;-65
2023/08/31 05:34:59;;;;;;;3.85;1.17;;;;;;;;;;4901277;29;20452;-64
2023/08/31 05:37:25;;;;;;;3.10;1.20;;;;;;;;;;4901453;29;20508;-64
2023/08/31 05:39:52;;;;;;;3.47;1.38;;;;;;;;;;4902920;29;20103;-64
2023/08/31 05:42:18;;;;;;;2.90;1.20;;;;;;;;;;4909641;29;20038;-64
2023/08/31 05:44:44;;;;;;;3.38;0.90;;;;;;;;;;4908521;29;20029;-64
2023/08/31 05:47:10;;;;;;;5.30;1.10;;;;;;;;;;4904998;29;20028;-63
2023/08/31 05:49:36;;;;;;;5.45;1.20;;;;;;;;;;4906181;29;20033;-64
2023/08/31 05:52:03;;;;;;;4.35;1.38;;;;;;;;;;4904958;29;20495;-64
2023/08/31 05:54:29;;;;;;;3.90;1.10;;;;;;;;;;4904637;29;20068;-64
2023/08/31 05:56:55;;;;;;;2.90;1.05;;;;;;;;;;4904365;29;20024;-64
2023/08/31 05:59:21;;;;;;;3.80;1.20;;;;;;;;;;4904572;29;20060;-63
2023/08/31 06:01:47;;;;;;;4.53;1.33;;;;;;;;;;4904806;29;20028;-64
2023/08/31 06:04:13;;;;;;;3.33;1.10;;;;;;;;;;4904211;29;20025;-64
2023/08/31 06:06:39;;;;;;;4.40;1.17;;;;;;;;;;4913009;29;20028;-66
2023/08/31 06:09:06;;;;;;;5.07;1.15;;;;;;;;;;4919210;29;20111;-64
2023/08/31 06:11:32;;;;;;;2.85;0.98;;;;;;;;;;4924212;29;20090;-64
2023/08/31 06:13:58;;;;;;;4.25;1.10;;;;;;;;;;4930615;29;20040;-64
2023/08/31 06:16:24;;;;;;;3.88;1.20;;;;;;;;;;4929745;29;20099;-65
2023/08/31 06:18:51;;;;;;;4.53;1.30;;;;;;;;;;4922935;29;21357;-64
2023/08/31 06:21:17;;;;;;;4.43;1.10;;;;;;;;;;4923180;29;20025;-63
2023/08/31 06:23:43;;;;;;;2.60;1.00;;;;;;;;;;4926401;29;20496;-65
2023/08/31 06:26:09;;;;;;;5.07;1.52;;;;;;;;;;4926594;29;20099;-65
2023/08/31 06:28:35;;;;;;;3.08;1.15;;;;;;;;;;4938908;29;20063;-65
2023/08/31 06:31:01;;;;;;;2.47;1.08;;;;;;;;;;4925187;29;20028;-65
2023/08/31 06:33:27;;;;;;;4.03;1.10;;;;;;;;;;4935128;29;20051;-65
2023/08/31 06:35:53;;;;;;;3.47;0.93;;;;;;;;;;4922902;29;20035;-66
2023/08/31 06:38:19;;;;;;;2.95;0.90;;;;;;;;;;4922409;29;20393;-66
2023/08/31 06:40:46;;;;;;;4.70;1.20;;;;;;;;;;4924034;29;20021;-66
2023/08/31 06:43:12;;;;;;;2.75;1.10;;;;;;;;;;4922516;29;20079;-66
2023/08/31 06:45:38;;;;;;;3.00;1.45;;;;;;;;;;4922735;29;20032;-66
2023/08/31 06:48:05;;;;;;;6.38;1.40;;;;;;;;;;4923716;29;20024;-67
2023/08/31 06:50:31;;;;;;;4.55;1.40;;;;;;;;;;4905726;29;20029;-66
2023/08/31 06:52:56;;;;;;;2.60;1.20;;;;;;;;;;4922356;29;20027;-66
2023/08/31 06:55:23;;;;;;;3.47;1.27;;;;;;;;;;4922044;29;20024;-65
2023/08/31 06:57:49;;;;;;;3.30;1.45;;;;;;;;;;4921853;29;20552;-64
2023/08/31 07:00:15;;;;;;;2.97;1.20;;;;;;;;;;4922876;29;20065;-66
2023/08/31 07:02:42;;;;;;;4.55;1.30;;;;;;;;;;4922318;29;20069;-65
2023/08/31 07:05:08;;;;;;;3.25;1.20;;;;;;;;;;4922541;29;20029;-64
2023/08/31 07:07:34;;;;;;;3.83;1.30;;;;;;;;;;4922356;29;20028;-64
2023/08/31 07:10:00;;;;;;;4.55;1.40;;;;;;;;;;4922282;29;20108;-65
2023/08/31 07:12:26;;;;;;;3.95;1.25;;;;;;;;;;4904136;29;20080;-65
2023/08/31 07:14:52;;;;;;;2.75;0.95;;;;;;;;;;4886336;29;20060;-62
2023/08/31 07:17:19;;;;;;;2.83;1.17;;;;;;;;;;4902908;29;20033;-63
2023/08/31 07:19:45;;;;;;;1.88;0.95;;;;;;;;;;4903238;29;20037;-65
2023/08/31 07:22:12;;;;;;;2.80;1.10;;;;;;;;;;4902663;29;20081;-67
2023/08/31 07:24:38;;;;;;;4.10;1.30;;;;;;;;;;4902962;29;20522;-65
2023/08/31 07:27:04;;;;;;;3.03;1.00;;;;;;;;;;4902634;29;20035;-62
2023/08/31 07:29:31;;;;;;;2.35;1.00;;;;;;;;;;4903090;29;20393;-63
2023/08/31 07:31:57;;;;;;;2.28;0.85;;;;;;;;;;4899181;29;20818;-64
2023/08/31 07:34:23;;;;;;;2.15;1.00;;;;;;;;;;4902949;29;20021;-63
2023/08/31 07:36:49;;;;;;;3.25;1.05;;;;;;;;;;4902807;29;20025;-64
2023/08/31 07:39:18;;;;;;;1.73;0.90;;;;;;;;;;4902916;29;20024;-64
2023/08/31 07:41:44;;;;;;;4.45;1.35;;;;;;;;;;4903780;29;20036;-64
2023/08/31 07:44:10;;;;;;;2.70;1.38;;;;;;;;;;4902739;29;20494;-63
2023/08/31 07:46:36;;;;;;;4.03;2.20;;;;;;;;;;4902331;29;20169;-64
2023/08/31 07:49:03;;;;;;;2.85;2.38;;;;;;;;;;4906935;29;20393;-63
2023/08/31 07:51:29;;;;;;;5.63;3.10;;;;;;;;;;4904173;29;20028;-65
2023/08/31 07:53:55;;;;;;;4.43;3.50;;;;;;;;;;4921414;29;20024;-67
2023/08/31 07:56:24;;;;;;;5.15;3.83;;;;;;;;;;4919478;29;20561;-70
2023/08/31 07:58:50;;;;;;;4.05;2.75;;;;;;;;;;4920440;29;20024;-64
2023/08/31 08:01:17;;;;;;;3.55;2.42;;;;;;;;;;4902723;29;20028;-64
2023/08/31 08:03:43;;;;;;;2.92;2.10;;;;;;;;;;4903955;29;20028;-63
2023/08/31 08:06:09;;;;;;;2.95;2.10;;;;;;;;;;4919898;29;20063;-63
2023/08/31 08:08:35;;;;;;;2.95;1.80;;;;;;;;;;4921091;29;20060;-63
2023/08/31 08:11:02;;;;;;;2.28;1.30;;;;;;;;;;4927612;29;20056;-63
2023/08/31 08:13:28;;;;;;;2.20;1.30;;;;;;;;;;4940050;29;20030;-63
2023/08/31 08:15:54;;;;;;;3.20;1.50;;;;;;;;;;4940148;29;20027;-63
2023/08/31 08:18:20;;;;;;;1.67;1.20;;;;;;;;;;4922669;29;20115;-64
2023/08/31 08:20:52;;;;;;;1.90;1.10;;;;;;;;;;4940046;29;20023;-64
2023/08/31 08:23:18;;;;;;;2.10;1.20;;;;;;;;;;4922790;29;20111;-64
2023/08/31 08:25:44;;;;;;;1.60;1.20;;;;;;;;;;4925229;29;20058;-64
2023/08/31 08:28:10;;;;;;;2.28;1.42;;;;;;;;;;4920720;29;20028;-64
2023/08/31 08:30:36;;;;;;;2.40;1.40;;;;;;;;;;4921500;29;20540;-63
2023/08/31 08:33:02;;;;;;;1.80;1.10;;;;;;;;;;4920838;29;20110;-63
2023/08/31 08:35:28;;;;;;;3.13;1.30;;;;;;;;;;4921155;29;20477;-64
2023/08/31 08:37:54;;;;;;;2.42;1.30;;;;;;;;;;4920908;29;20032;-63
2023/08/31 08:40:20;;;;;;;2.25;1.50;;;18.30;99.90;;;;;;4922412;29;20401;-63
2023/08/31 08:42:47;;;;;;;1.45;1.10;;;18.30;99.90;;;;;;4920764;29;20024;-63
2023/08/31 08:45:16;;;;;;;1.88;1.33;;;18.50;99.90;;;;;;4920876;29;20035;-64
2023/08/31 08:47:43;;;;;;;1.20;0.90;;;18.50;99.90;;;;;;4922338;29;20485;-63
2023/08/31 08:50:11;;;;;;;1.73;1.20;;;18.70;99.90;;;;;;4921037;29;20099;-63
2023/08/31 08:52:37;;;;;;;2.03;1.20;;;18.80;99.90;;;;;;4920872;29;20020;-64
2023/08/31 08:55:04;;;;;;;1.42;1.00;;;18.70;99.90;;;;;;4920742;29;20390;-63
2023/08/31 08:57:31;;;;;;;1.50;1.10;;;18.80;99.90;;;;;;4920488;29;20141;-63
2023/08/31 08:59:58;;;;;;;1.58;1.02;;;18.90;99.90;;;;;;4920860;29;20079;-64
2023/08/31 09:02:24;;;;;;;2.63;1.38;;;18.90;99.90;;;;;;4920798;29;20085;-64
2023/08/31 09:04:54;;;;;;;1.52;1.00;;;18.90;99.90;;;;;;4920760;29;20024;-64
2023/08/31 09:07:23;;;;;;;1.33;1.10;;;19.00;99.90;;;;;;4920677;29;20028;-63
2023/08/31 09:09:53;;;;;;;1.77;0.80;;;19.00;99.90;;;;;;4920695;29;20044;-63
2023/08/31 09:12:22;;;;;;;2.17;1.02;;;18.90;99.90;;;;;;4903498;29;20072;-65
2023/08/31 09:14:58;;;;;;;1.90;1.25;;;18.90;99.90;;;;;;4884969;29;20037;-63
2023/08/31 09:17:27;;;;;;;1.35;0.98;;;18.90;99.90;;;;;;4903132;29;20040;-63
2023/08/31 09:20:09;;;;;;;1.98;1.00;;;18.90;99.90;;;;;;4888651;29;20039;-64
2023/08/31 09:22:35;;;;;;;1.75;0.90;;;18.70;99.90;;;;;;4888617;29;20127;-64
2023/08/31 09:25:01;;;;;;;1.20;0.90;;;18.80;99.90;;;;;;4905096;29;20029;-63
2023/08/31 09:27:26;;;;;;;1.20;0.98;;;18.80;99.90;;;;;;4905349;29;20055;-64
2023/08/31 09:29:55;;;;;;;1.73;1.00;;;18.80;99.90;;;;;;4905351;29;20032;-63
2023/08/31 09:32:21;;;;;;;1.25;0.93;;;18.80;99.90;;;;;;4905317;29;20490;-63
2023/08/31 09:34:48;;;;;;;1.10;1.00;;;18.80;99.90;;;;;;4905153;29;20108;-64
2023/08/31 09:37:16;;;;;;;1.45;1.13;;;18.90;99.90;;;;;;4904977;29;20118;-63
2023/08/31 09:39:42;;;;;;;1.75;1.10;;;19.00;99.90;;;;;;4906376;29;20032;-63
2023/08/31 09:42:08;;;;;;;1.30;1.00;;;19.10;99.90;;;;;;4905008;29;20029;-64
2023/08/31 09:44:34;;;;;;;1.23;0.95;;;19.10;99.90;;;;;;4904926;29;20040;-62
2023/08/31 09:47:00;;;;;;;1.10;1.00;;;19.00;99.90;;;;;;4888203;29;20486;-63
2023/08/31 09:49:26;;;;;;;1.00;0.90;;;19.00;99.90;;;;;;4906280;29;20061;-64
2023/08/31 09:51:52;;;;;;;1.60;1.23;;;19.10;99.90;;;;;;4905022;29;20100;-63
2023/08/31 09:54:21;;;;;;;3.05;1.17;;;19.10;99.90;;;;;;4887898;29;20553;-63
2023/08/31 09:56:48;;;;;;;1.50;1.30;;;19.00;99.90;;;;;;4904735;29;20032;-63
2023/08/31 09:59:15;;;;;;;2.20;1.40;;;19.00;99.90;;;;;;4904454;29;20024;-63
2023/08/31 10:01:42;;;;;;;3.00;1.67;;;19.00;99.90;;;;;;4904851;29;20027;-63
2023/08/31 10:04:08;;;;;;;1.67;1.42;;;19.00;99.90;;;;;;4904717;29;20024;-63
2023/08/31 10:06:39;;;;;;;2.40;1.38;;;19.10;99.90;;;;;;4904422;29;20031;-63
2023/08/31 10:09:06;;;;;;;1.52;1.13;;;19.10;99.90;;;;;;4904498;29;20033;-63
2023/08/31 10:11:32;;;;;;;1.55;1.10;;;19.30;99.90;;;;;;4903843;29;20052;-63
2023/08/31 10:13:59;;;;;;;1.42;0.93;;;19.40;99.90;;;;;;4904628;29;20040;-63
2023/08/31 10:16:27;;;;;;;1.50;1.10;;;19.50;99.90;;;;;;4904631;29;20032;-63
2023/08/31 10:18:54;;;;;;;1.38;0.85;;;19.50;99.90;;;;;;4904478;29;20061;-62
2023/08/31 10:21:20;;;;;;;1.35;0.90;;;19.70;99.90;;;;;;4904016;29;20501;-62
2023/08/31 10:23:47;;;;;;;1.92;0.88;;;20.00;99.90;;;;;;4902732;29;20035;-65
2023/08/31 10:26:23;;;;;;;1.42;0.88;;;20.20;99.90;;;;;;4918403;29;20084;-64
2023/08/31 10:28:49;;;;;;;0.90;0.70;;;20.40;99.90;;;;;;4918163;29;20067;-64
2023/08/31 10:31:19;;;;;;;1.60;1.00;;;20.60;99.90;;;;;;4915770;29;20056;-65
2023/08/31 10:33:57;;;;;;;0.98;0.70;;;20.70;99.90;;;;;;4916714;29;20118;-65
2023/08/31 10:36:38;;;;;;;0.95;0.73;;;20.80;99.90;;;;;;4897217;29;20029;-65
2023/08/31 10:39:15;;;;;;;1.20;0.80;;;20.70;99.90;;;;;;4920013;29;20524;-65
2023/08/31 10:41:42;;;;;;;0.90;0.70;;;20.60;99.90;;;;;;4896511;29;20031;-65
2023/08/31 10:44:25;;;;;;;1.00;0.70;;;20.50;99.90;;;;;;4895433;29;20024;-66
2023/08/31 10:46:52;;;;;;;0.73;0.50;;;20.50;99.90;;;;;;4917317;29;20080;-64
2023/08/31 10:49:20;;;;;;;1.15;0.70;;;20.50;99.90;;;;;;4921681;29;20048;-65
2023/08/31 10:52:17;;;;;;;0.95;0.60;;;20.40;99.90;;;;;;4920144;29;20044;-64
2023/08/31 10:54:43;;;;;;;0.70;0.50;;;20.30;99.90;;;;;;4911421;29;20124;-64
2023/08/31 10:57:11;;;;;;;1.63;0.73;;;20.30;99.90;;;;;;4919549;29;20493;-64
2023/08/31 10:59:47;;;;;;;1.30;0.70;;;20.30;99.90;;;;;;4915110;29;20059;-62
2023/08/31 11:02:45;;;;;;;0.95;0.65;;;20.30;99.90;;;;;;4898087;29;20100;-64
2023/08/31 11:05:11;;;;;;;0.90;0.63;;;20.30;99.90;;;;;;4895483;29;20026;-64
2023/08/31 11:07:42;;;;;;;1.38;0.50;;;20.30;99.90;;;;;;4919511;29;20029;-64
2023/08/31 11:10:11;;;;;;;0.60;0.43;;;20.20;99.90;;;;;;4915237;29;20099;-64
2023/08/31 11:12:38;;;;;;;0.80;0.50;;;20.10;99.90;;;;;;4916852;29;20067;-64
2023/08/31 11:15:04;;;;;;;0.65;0.40;;;;;;;;;;4921521;29;20099;-63
2023/08/31 11:17:32;;;;;;;0.63;0.52;;;;;;;;;;4920145;29;20024;-63
2023/08/31 11:19:58;;;;;;;0.82;0.50;;;;;;;;;;4897587;29;20032;-63
2023/08/31 11:22:24;;;;;;;0.70;0.40;;;;;;;;;;4918252;29;20027;-63
2023/08/31 11:24:50;;;;;;;0.70;0.43;;;;;;;;;;4917824;29;20391;-64
2023/08/31 11:27:20;;;;;;;0.65;0.60;;;;;;;;;;4920497;29;20027;-64
2023/08/31 11:29:46;;;;;;;1.00;0.60;;;;;;;;;;4892290;29;20040;-63
2023/08/31 11:32:12;;;;;;;0.85;0.50;;;;;;;;;;4918725;29;20028;-64
2023/08/31 11:34:42;;;;;;;0.65;0.40;;;;;;;;;;4919378;29;20401;-64
2023/08/31 11:37:09;;;;;;;0.60;0.32;;;;;;;;;;4899544;29;20465;-64
2023/08/31 11:39:35;;;;;;;0.50;0.40;;;;;;;;;;4919749;29;20041;-66
2023/08/31 11:42:01;;;;;;;1.38;0.50;;;;;;;;;;4918835;29;20064;-63
2023/08/31 11:44:27;;;;;;;0.45;0.30;;;;;;;;;;4899596;29;20064;-65
2023/08/31 11:46:53;;;;;;;1.30;0.68;;;;;;;;;;4902955;29;20058;-64
2023/08/31 11:49:19;;;;;;;1.73;0.50;;;;;;;;;;4903890;29;20032;-64
2023/08/31 11:51:45;;;;;;;1.27;0.70;;;;;;;;;;4902756;29;20024;-65
2023/08/31 11:54:11;;;;;;;1.00;0.45;;;;;;;;;;4902464;29;20520;-64
2023/08/31 11:56:46;;;;;;;0.40;0.30;;;;;;;;;;4900670;29;20077;-63
2023/08/31 11:59:12;;;;;;;0.70;0.40;;;;;;;;;;4889169;29;20039;-64
2023/08/31 12:01:42;;;;;;;0.93;0.50;;;;;;;;;;4884852;29;20033;-64
2023/08/31 12:04:15;;;;;;;0.90;0.47;;;;;;;;;;4902180;29;20028;-64
2023/08/31 12:06:41;;;;;;;0.95;0.43;;;;;;;;;;4885074;29;20375;-64
2023/08/31 12:09:10;;;;;;;0.85;0.40;;;;;;;;;;4902105;29;20495;-64
2023/08/31 12:11:36;;;;;;;1.08;0.40;;;;;;;;;;4901581;29;20056;-65
2023/08/31 12:14:06;;;;;;;0.45;0.40;;;;;;;;;;4901597;29;20045;-65
2023/08/31 12:16:32;;;;;;;0.80;0.50;;;;;;;;;;4902048;29;20053;-65
2023/08/31 12:19:04;;;;;;;0.77;0.50;;;;;;;;;;4901565;29;20489;-64
2023/08/31 12:21:34;;;;;;;0.83;0.40;;;;;;;;;;4902173;29;20207;-65
2023/08/31 12:24:00;;;;;;;0.85;0.50;;;;;;;;;;4901564;29;20052;-65
2023/08/31 12:26:26;;;;;;;0.77;0.52;;;;;;;;;;4901779;29;20033;-65
2023/08/31 12:28:53;;;;;;;0.70;0.43;;;;;;;;;;4901820;29;20025;-65
2023/08/31 12:31:18;;;;;;;0.40;0.30;;;;;;;;;;4902095;29;20052;-65
2023/08/31 12:33:45;;;;;;;1.05;0.45;;;;;;;;;;4901754;29;20033;-65
2023/08/31 12:36:11;;;;;;;0.70;0.40;;;;;;;;;;4901827;29;20095;-65
2023/08/31 12:38:37;;;;;;;0.73;0.40;;;;;;;;;;4901461;29;20024;-65
2023/08/31 12:41:03;;;;;;;1.60;0.57;;;;;;;;;;4903040;29;20128;-66
2023/08/31 12:43:29;;;;;;;1.48;0.55;;;;;;;;;;4901481;29;20469;-65
2023/08/31 12:45:58;;;;;;;1.52;0.73;;;;;;;;;;4884882;29;20028;-66
2023/08/31 12:48:24;;;;;;;1.10;0.47;;;;;;;;;;4902987;29;20056;-66
2023/08/31 12:50:50;;;;;;;1.10;0.60;;;;;;;;;;4884802;29;20028;-66
2023/08/31 12:53:16;;;;;;;1.08;0.32;;;;;;;;;;4904477;29;20573;-66
2023/08/31 12:55:42;;;;;;;0.75;0.50;;;;;;;;;;4888590;29;20033;-65
2023/08/31 12:58:08;;;;;;;1.52;0.70;;;;;;;;;;4905106;29;20039;-65
2023/08/31 13:00:34;;;;;;;1.77;0.50;;;;;;;;;;4905596;29;20032;-69
2023/08/31 13:03:03;;;;;;;0.93;0.50;;;;;;;;;;4888479;29;20076;-69
2023/08/31 13:05:29;;;;;;;1.00;0.52;;;;;;;;;;4904955;29;20409;-68
2023/08/31 13:07:55;;;;;;;1.05;0.50;;;;;;;;;;4888161;29;20116;-68
2023/08/31 13:10:21;;;;;;;1.25;0.70;;;;;;;;;;4904922;29;20037;-66
2023/08/31 13:12:47;;;;;;;1.35;0.50;;;;;;;;;;4904822;29;20032;-69
2023/08/31 13:15:14;;;;;;;2.10;0.60;;;;;;;;;;4904575;29;20057;-68
2023/08/31 13:17:40;;;;;;;1.05;0.70;;;;;;;;;;4905076;29;20088;-68
2023/08/31 13:20:08;;;;;;;3.05;0.80;;;22.60;99.90;;;;;;4905264;29;20032;-68
2023/08/31 13:22:34;;;;;;;1.73;0.70;;;21.80;99.90;;;;;;4905377;29;20021;-68
2023/08/31 13:25:00;;;;;;;1.65;0.50;;;21.10;99.90;;;;;;4904611;29;20173;-68
2023/08/31 13:27:25;;;;;;;1.38;0.70;;;21.00;99.90;;;;;;4887707;29;20681;-68
2023/08/31 13:29:51;;;;;;;1.63;0.70;;;21.00;99.90;;;;;;4904967;29;20470;-67
2023/08/31 13:32:17;;;;;;;1.05;0.70;;;21.10;99.90;;;;;;4904700;29;20032;-68
2023/08/31 13:34:43;;;;;;;1.95;0.70;;;21.20;99.90;;;;;;4904877;29;20036;-66
2023/08/31 13:37:08;;;;;;;1.67;0.60;;;21.40;99.90;;;;;;4904709;29;20056;-66
2023/08/31 13:39:40;;;;;;;2.08;0.73;;;21.50;99.90;;;;;;4894037;29;20120;-68
2023/08/31 13:42:06;;;;;;;2.25;0.80;;;21.60;99.90;;;;;;4904210;29;20020;-67
2023/08/31 13:44:32;;;;;;;0.80;0.60;;;21.80;99.90;;;;;;4904456;29;20021;-68
2023/08/31 13:46:58;;;;;;;1.80;0.70;;;22.00;99.90;;;;;;4904129;29;20394;-67
2023/08/31 13:49:23;;;;;;;2.13;0.60;;;22.20;99.90;;;;;;4905355;29;20033;-67
2023/08/31 13:51:49;;;;;;;0.88;0.57;;;22.40;99.90;;;;;;4887056;29;20516;-68
2023/08/31 13:54:14;;;;;;;1.50;0.57;;;22.40;99.90;;;;;;4904177;29;20025;-68
2023/08/31 13:56:40;;;;;;;1.80;0.70;;;22.50;99.90;;;;;;4903652;29;20037;-67
2023/08/31 13:59:06;;;;;;;1.13;0.55;;;22.20;99.90;;;;;;4904093;29;20470;-65
2023/08/31 14:01:31;;;;;;;2.53;0.50;;;22.20;99.90;;;;;;4904498;29;20478;-68
2023/08/31 14:03:57;;;;;;;1.38;0.50;;;22.10;99.90;;;;;;4903729;29;20029;-69
2023/08/31 14:06:23;;;;;;;1.75;0.60;;;22.30;99.90;;;;;;4903885;29;20073;-68
2023/08/31 14:08:48;;;;;;;0.75;0.40;;;22.30;99.90;;;;;;4903907;29;20033;-68
2023/08/31 14:11:14;;;;;;;0.38;0.30;;;22.40;99.90;;;;;;4894686;29;20044;-66